sensor_id;sensor_type;location;lat;lon;timestamp;pressure;altitude;pressure_sealevel;temperature;humidity
71195;BME280;58908;51.426;7.714;2022-11-20T00:00:46;99485.88;;;-4.56;100.00
71195;BME280;58908;51.426;7.714;2022-11-20T00:03:12;99486.75;;;-4.60;100.00
71195;BME280;58908;51.426;7.714;2022-11-20T00:05:40;99482.44;;;-4.58;100.00
71195;BME280;58908;51.426;7.714;2022-11-20T00:08:06;99479.88;;;-4.62;100.00
71195;BME280;58908;51.426;7.714;2022-11-20T00:10:35;99484.16;;;-4.67;100.00
71195;BME280;58908;51.426;7.714;2022-11-20T00:13:01;99486.78;;;-4.71;100.00
71195;BME280;58908;51.426;7.714;2022-11-20T00:15:28;99489.31;;;-4.70;100.00
71195;BME280;58908;51.426;7.714;2022-11-20T00:17:54;99487.59;;;-4.62;100.00
71195;BME280;58908;51.426;7.714;2022-11-20T00:20:20;99486.69;;;-4.46;100.00
71195;BME280;58908;51.426;7.714;2022-11-20T00:22:48;99484.13;;;-4.40;100.00
71195;BME280;58908;51.426;7.714;2022-11-20T00:25:15;99482.41;;;-4.41;100.00
71195;BME280;58908;51.426;7.714;2022-11-20T00:27:41;99479.81;;;-4.32;100.00
71195;BME280;58908;51.426;7.714;2022-11-20T00:30:08;99479.78;;;-4.26;100.00
71195;BME280;58908;51.426;7.714;2022-11-20T00:32:34;99484.91;;;-4.23;100.00
71195;BME280;58908;51.426;7.714;2022-11-20T00:35:00;99483.19;;;-4.20;100.00
71195;BME280;58908;51.426;7.714;2022-11-20T00:37:26;99475.44;;;-4.11;100.00
71195;BME280;58908;51.426;7.714;2022-11-20T00:39:54;99484.84;;;-3.96;100.00
71195;BME280;58908;51.426;7.714;2022-11-20T00:42:20;99483.94;;;-3.88;100.00
71195;BME280;58908;51.426;7.714;2022-11-20T00:44:46;99485.59;;;-3.79;100.00
71195;BME280;58908;51.426;7.714;2022-11-20T00:47:13;99483.00;;;-3.69;100.00
71195;BME280;58908;51.426;7.714;2022-11-20T00:49:39;99482.88;;;-3.51;100.00
71195;BME280;58908;51.426;7.714;2022-11-20T00:52:05;99476.75;;;-3.36;100.00
71195;BME280;58908;51.426;7.714;2022-11-20T00:54:32;99470.72;;;-3.31;100.00
71195;BME280;58908;51.426;7.714;2022-11-20T00:56:59;99474.09;;;-3.23;100.00
71195;BME280;58908;51.426;7.714;2022-11-20T00:59:26;99474.81;;;-3.06;100.00
71195;BME280;58908;51.426;7.714;2022-11-20T01:01:52;99479.94;;;-3.00;100.00
71195;BME280;58908;51.426;7.714;2022-11-20T01:04:18;99473.00;;;-2.95;100.00
71195;BME280;58908;51.426;7.714;2022-11-20T01:06:44;99472.94;;;-2.84;100.00
71195;BME280;58908;51.426;7.714;2022-11-20T01:09:11;99477.81;;;-2.56;100.00
71195;BME280;58908;51.426;7.714;2022-11-20T01:11:39;99471.56;;;-2.34;100.00
71195;BME280;58908;51.426;7.714;2022-11-20T01:14:07;99463.72;;;-2.25;100.00
71195;BME280;58908;51.426;7.714;2022-11-20T01:16:36;99459.25;;;-2.10;100.00
71195;BME280;58908;51.426;7.714;2022-11-20T01:19:03;99463.59;;;-2.15;100.00
71195;BME280;58908;51.426;7.714;2022-11-20T01:21:30;99465.41;;;-2.20;100.00
71195;BME280;58908;51.426;7.714;2022-11-20T01:23:57;99466.28;;;-2.24;100.00
71195;BME280;58908;51.426;7.714;2022-11-20T01:26:24;99461.16;;;-2.25;100.00
71195;BME280;58908;51.426;7.714;2022-11-20T01:28:51;99459.34;;;-2.20;100.00
71195;BME280;58908;51.426;7.714;2022-11-20T01:31:19;99462.66;;;-2.08;100.00
71195;BME280;58908;51.426;7.714;2022-11-20T01:33:46;99460.13;;;-2.11;100.00
71195;BME280;58908;51.426;7.714;2022-11-20T01:36:14;99454.94;;;-2.09;100.00
71195;BME280;58908;51.426;7.714;2022-11-20T01:38:40;99456.66;;;-2.10;100.00
71195;BME280;58908;51.426;7.714;2022-11-20T01:41:07;99452.44;;;-2.18;100.00
71195;BME280;58908;51.426;7.714;2022-11-20T01:43:33;99464.44;;;-2.13;100.00
71195;BME280;58908;51.426;7.714;2022-11-20T01:46:00;99461.84;;;-2.13;100.00
71195;BME280;58908;51.426;7.714;2022-11-20T01:48:30;99461.84;;;-2.11;100.00
71195;BME280;58908;51.426;7.714;2022-11-20T01:50:57;99454.75;;;-1.96;100.00
71195;BME280;58908;51.426;7.714;2022-11-20T01:53:25;99457.19;;;-1.84;100.00
71195;BME280;58908;51.426;7.714;2022-11-20T01:55:53;99453.63;;;-1.75;100.00
71195;BME280;58908;51.426;7.714;2022-11-20T01:58:21;99448.31;;;-1.65;100.00
71195;BME280;58908;51.426;7.714;2022-11-20T02:00:49;99438.69;;;-1.55;100.00
71195;BME280;58908;51.426;7.714;2022-11-20T02:03:16;99433.47;;;-1.49;100.00
71195;BME280;58908;51.426;7.714;2022-11-20T02:05:45;99431.66;;;-1.44;100.00
71195;BME280;58908;51.426;7.714;2022-11-20T02:08:13;99428.19;;;-1.45;100.00
71195;BME280;58908;51.426;7.714;2022-11-20T02:10:39;99419.59;;;-1.45;100.00
71195;BME280;58908;51.426;7.714;2022-11-20T02:13:06;99424.81;;;-1.48;100.00
71195;BME280;58908;51.426;7.714;2022-11-20T02:15:50;99423.13;;;-1.51;100.00
71195;BME280;58908;51.426;7.714;2022-11-20T02:18:17;99418.00;;;-1.54;100.00
71195;BME280;58908;51.426;7.714;2022-11-20T02:20:46;99409.25;;;-1.47;100.00
71195;BME280;58908;51.426;7.714;2022-11-20T02:23:16;99409.00;;;-1.30;100.00
71195;BME280;58908;51.426;7.714;2022-11-20T02:25:46;99401.94;;;-1.19;100.00
71195;BME280;58908;51.426;7.714;2022-11-20T02:28:13;99398.44;;;-1.15;100.00
71195;BME280;58908;51.426;7.714;2022-11-20T02:30:39;99398.44;;;-1.15;100.00
71195;BME280;58908;51.426;7.714;2022-11-20T02:33:05;99390.63;;;-1.14;100.00
71195;BME280;58908;51.426;7.714;2022-11-20T02:35:42;99405.31;;;-1.16;100.00
71195;BME280;58908;51.426;7.714;2022-11-20T02:38:09;99408.81;;;-1.18;100.00
71195;BME280;58908;51.426;7.714;2022-11-20T02:40:35;99405.41;;;-1.20;100.00
71195;BME280;58908;51.426;7.714;2022-11-20T02:43:03;99408.88;;;-1.23;100.00
71195;BME280;58908;51.426;7.714;2022-11-20T02:45:29;99418.34;;;-1.20;100.00
71195;BME280;58908;51.426;7.714;2022-11-20T02:47:56;99412.31;;;-1.21;100.00
71195;BME280;58908;51.426;7.714;2022-11-20T02:50:22;99418.47;;;-1.28;100.00
71195;BME280;58908;51.426;7.714;2022-11-20T02:52:48;99415.88;;;-1.29;100.00
71195;BME280;58908;51.426;7.714;2022-11-20T02:55:15;99410.75;;;-1.31;100.00
71195;BME280;58908;51.426;7.714;2022-11-20T02:57:41;99403.88;;;-1.32;100.00
71195;BME280;58908;51.426;7.714;2022-11-20T03:00:09;99399.66;;;-1.39;100.00
71195;BME280;58908;51.426;7.714;2022-11-20T03:02:36;99391.13;;;-1.44;100.00
71195;BME280;58908;51.426;7.714;2022-11-20T03:05:02;99393.66;;;-1.41;100.00
71195;BME280;58908;51.426;7.714;2022-11-20T03:07:29;99398.78;;;-1.39;100.00
71195;BME280;58908;51.426;7.714;2022-11-20T03:09:55;99398.78;;;-1.38;100.00
71195;BME280;58908;51.426;7.714;2022-11-20T03:12:21;99391.81;;;-1.33;100.00
71195;BME280;58908;51.426;7.714;2022-11-20T03:14:47;99388.50;;;-1.41;100.00
71195;BME280;58908;51.426;7.714;2022-11-20T03:17:15;99379.94;;;-1.46;100.00
71195;BME280;58908;51.426;7.714;2022-11-20T03:19:41;99384.16;;;-1.40;100.00
71195;BME280;58908;51.426;7.714;2022-11-20T03:22:07;99389.34;;;-1.40;100.00
71195;BME280;58908;51.426;7.714;2022-11-20T03:24:34;99390.19;;;-1.38;100.00
71195;BME280;58908;51.426;7.714;2022-11-20T03:27:00;99385.97;;;-1.44;100.00
71195;BME280;58908;51.426;7.714;2022-11-20T03:29:26;99375.66;;;-1.47;100.00
71195;BME280;58908;51.426;7.714;2022-11-20T03:31:53;99379.09;;;-1.46;100.00
71195;BME280;58908;51.426;7.714;2022-11-20T03:34:20;99385.97;;;-1.44;100.00
71195;BME280;58908;51.426;7.714;2022-11-20T03:36:48;99393.59;;;-1.38;100.00
71195;BME280;58908;51.426;7.714;2022-11-20T03:39:14;99379.78;;;-1.35;100.00
71195;BME280;58908;51.426;7.714;2022-11-20T03:41:40;99372.09;;;-1.41;100.00
71195;BME280;58908;51.426;7.714;2022-11-20T03:44:07;99367.75;;;-1.38;100.00
71195;BME280;58908;51.426;7.714;2022-11-20T03:46:34;99361.69;;;-1.37;100.00
71195;BME280;58908;51.426;7.714;2022-11-20T03:49:00;99360.84;;;-1.37;100.00
71195;BME280;58908;51.426;7.714;2022-11-20T03:51:28;99367.66;;;-1.32;100.00
71195;BME280;58908;51.426;7.714;2022-11-20T03:53:55;99360.69;;;-1.28;100.00
71195;BME280;58908;51.426;7.714;2022-11-20T03:56:23;99364.91;;;-1.23;100.00
71195;BME280;58908;51.426;7.714;2022-11-20T03:58:50;99364.78;;;-1.15;100.00
71195;BME280;58908;51.426;7.714;2022-11-20T04:01:16;99363.03;;;-1.15;100.00
71195;BME280;58908;51.426;7.714;2022-11-20T04:03:43;99363.94;;;-1.17;100.00
71195;BME280;58908;51.426;7.714;2022-11-20T04:06:10;99367.41;;;-1.17;100.00
71195;BME280;58908;51.426;7.714;2022-11-20T04:08:38;99370.81;;;-1.15;100.00
71195;BME280;58908;51.426;7.714;2022-11-20T04:11:09;99365.69;;;-1.18;100.00
71195;BME280;58908;51.426;7.714;2022-11-20T04:13:35;99361.50;;;-1.25;100.00
71195;BME280;58908;51.426;7.714;2022-11-20T04:16:02;99370.28;;;-1.35;100.00
71195;BME280;58908;51.426;7.714;2022-11-20T04:18:28;99365.16;;;-1.36;100.00
71195;BME280;58908;51.426;7.714;2022-11-20T04:20:55;99364.06;;;-1.23;100.00
71195;BME280;58908;51.426;7.714;2022-11-20T04:23:22;99356.34;;;-1.26;100.00
71195;BME280;58908;51.426;7.714;2022-11-20T04:25:49;99358.06;;;-1.25;100.00
71195;BME280;58908;51.426;7.714;2022-11-20T04:28:16;99361.34;;;-1.17;100.00
71195;BME280;58908;51.426;7.714;2022-11-20T04:30:42;99366.47;;;-1.13;100.00
71195;BME280;58908;51.426;7.714;2022-11-20T04:33:08;99361.25;;;-1.10;100.00
71195;BME280;58908;51.426;7.714;2022-11-20T04:35:34;99361.19;;;-1.08;100.00
71195;BME280;58908;51.426;7.714;2022-11-20T04:38:01;99360.31;;;-1.06;100.00
71195;BME280;58908;51.426;7.714;2022-11-20T04:40:27;99357.66;;;-1.03;100.00
71195;BME280;58908;51.426;7.714;2022-11-20T04:42:55;99360.22;;;-1.01;100.00
71195;BME280;58908;51.426;7.714;2022-11-20T04:45:21;99358.47;;;-0.99;100.00
71195;BME280;58908;51.426;7.714;2022-11-20T04:47:48;99354.84;;;-0.89;100.00
71195;BME280;58908;51.426;7.714;2022-11-20T04:50:14;99361.78;;;-0.91;100.00
71195;BME280;58908;51.426;7.714;2022-11-20T04:52:41;99352.34;;;-0.95;100.00
71195;BME280;58908;51.426;7.714;2022-11-20T04:55:07;99355.94;;;-1.04;100.00
71195;BME280;58908;51.426;7.714;2022-11-20T04:57:33;99352.47;;;-1.03;100.00
71195;BME280;58908;51.426;7.714;2022-11-20T05:00:01;99355.13;;;-1.06;100.00
71195;BME280;58908;51.426;7.714;2022-11-20T05:02:27;99360.38;;;-1.09;100.00
71195;BME280;58908;51.426;7.714;2022-11-20T05:04:54;99368.94;;;-1.07;100.00
71195;BME280;58908;51.426;7.714;2022-11-20T05:07:20;99355.94;;;-1.04;100.00
71195;BME280;58908;51.426;7.714;2022-11-20T05:09:46;99355.06;;;-1.03;100.00
71195;BME280;58908;51.426;7.714;2022-11-20T05:12:12;99360.16;;;-0.97;100.00
71195;BME280;58908;51.426;7.714;2022-11-20T05:14:39;99359.25;;;-0.96;100.00
71195;BME280;58908;51.426;7.714;2022-11-20T05:17:06;99363.56;;;-0.96;100.00
71195;BME280;58908;51.426;7.714;2022-11-20T05:19:35;99361.78;;;-0.93;100.00
71195;BME280;58908;51.426;7.714;2022-11-20T05:22:01;99360.06;;;-0.92;100.00
71195;BME280;58908;51.426;7.714;2022-11-20T05:24:28;99366.22;;;-0.98;100.00
71195;BME280;58908;51.426;7.714;2022-11-20T05:26:54;99360.09;;;-0.94;100.00
71195;BME280;58908;51.426;7.714;2022-11-20T05:29:20;99366.97;;;-0.93;100.00
71195;BME280;58908;51.426;7.714;2022-11-20T05:31:46;99354.22;;;-1.03;100.00
71195;BME280;58908;51.426;7.714;2022-11-20T05:34:14;99348.31;;;-1.11;100.00
71195;BME280;58908;51.426;7.714;2022-11-20T05:36:40;99356.09;;;-1.11;100.00
71195;BME280;58908;51.426;7.714;2022-11-20T05:39:06;99354.25;;;-1.06;100.00
71195;BME280;58908;51.426;7.714;2022-11-20T05:41:33;99348.19;;;-1.04;100.00
71195;BME280;58908;51.426;7.714;2022-11-20T05:43:59;99354.19;;;-1.02;100.00
71195;BME280;58908;51.426;7.714;2022-11-20T05:46:25;99353.31;;;-1.01;100.00
71195;BME280;58908;51.426;7.714;2022-11-20T05:48:52;99348.09;;;-0.98;100.00
71195;BME280;58908;51.426;7.714;2022-11-20T05:51:19;99355.06;;;-1.01;100.00
71195;BME280;58908;51.426;7.714;2022-11-20T05:53:46;99347.31;;;-1.03;100.00
71195;BME280;58908;51.426;7.714;2022-11-20T05:56:13;99343.84;;;-1.02;100.00
71195;BME280;58908;51.426;7.714;2022-11-20T05:58:40;99343.97;;;-1.08;100.00
71195;BME280;58908;51.426;7.714;2022-11-20T06:01:07;99351.69;;;-1.06;100.00
71195;BME280;58908;51.426;7.714;2022-11-20T06:03:33;99338.72;;;-1.03;100.00
71195;BME280;58908;51.426;7.714;2022-11-20T06:05:59;99342.19;;;-1.04;100.00
71195;BME280;58908;51.426;7.714;2022-11-20T06:08:27;99346.47;;;-1.05;100.00
71195;BME280;58908;51.426;7.714;2022-11-20T06:10:54;99344.78;;;-1.06;100.00
71195;BME280;58908;51.426;7.714;2022-11-20T06:13:20;99348.41;;;-1.16;100.00
71195;BME280;58908;51.426;7.714;2022-11-20T06:15:48;99348.47;;;-1.19;100.00
71195;BME280;58908;51.426;7.714;2022-11-20T06:18:14;99345.00;;;-1.19;100.00
71195;BME280;58908;51.426;7.714;2022-11-20T06:20:40;99347.66;;;-1.21;100.00
71195;BME280;58908;51.426;7.714;2022-11-20T06:23:06;99346.78;;;-1.21;100.00
71195;BME280;58908;51.426;7.714;2022-11-20T06:25:34;99346.69;;;-1.17;100.00
71195;BME280;58908;51.426;7.714;2022-11-20T06:28:02;99351.78;;;-1.12;100.00
71195;BME280;58908;51.426;7.714;2022-11-20T06:30:29;99346.69;;;-1.17;100.00
71195;BME280;58908;51.426;7.714;2022-11-20T06:32:55;99352.84;;;-1.22;100.00
71195;BME280;58908;51.426;7.714;2022-11-20T06:35:21;99340.03;;;-1.31;100.00
71195;BME280;58908;51.426;7.714;2022-11-20T06:37:47;99353.09;;;-1.37;100.00
71195;BME280;58908;51.426;7.714;2022-11-20T06:40:14;99357.50;;;-1.44;100.00
71195;BME280;58908;51.426;7.714;2022-11-20T06:42:41;99359.31;;;-1.49;100.00
71195;BME280;58908;51.426;7.714;2022-11-20T06:45:08;99353.44;;;-1.58;100.00
71195;BME280;58908;51.426;7.714;2022-11-20T06:47:34;99347.38;;;-1.57;100.00
71195;BME280;58908;51.426;7.714;2022-11-20T06:50:01;99350.88;;;-1.61;100.00
71195;BME280;58908;51.426;7.714;2022-11-20T06:52:27;99358.69;;;-1.64;100.00
71195;BME280;58908;51.426;7.714;2022-11-20T06:54:53;99360.44;;;-1.68;100.00
71195;BME280;58908;51.426;7.714;2022-11-20T06:57:19;99362.31;;;-1.76;100.00
71195;BME280;58908;51.426;7.714;2022-11-20T06:59:47;99365.72;;;-1.72;100.00
71195;BME280;58908;51.426;7.714;2022-11-20T07:02:13;99364.09;;;-1.81;100.00
71195;BME280;58908;51.426;7.714;2022-11-20T07:04:39;99364.94;;;-1.79;100.00
71195;BME280;58908;51.426;7.714;2022-11-20T07:07:06;99371.91;;;-1.85;100.00
71195;BME280;58908;51.426;7.714;2022-11-20T07:09:32;99371.13;;;-1.90;100.00
71195;BME280;58908;51.426;7.714;2022-11-20T07:11:58;99359.09;;;-1.91;100.00
71195;BME280;58908;51.426;7.714;2022-11-20T07:14:25;99365.22;;;-1.97;100.00
71195;BME280;58908;51.426;7.714;2022-11-20T07:16:53;99370.38;;;-1.97;100.00
71195;BME280;58908;51.426;7.714;2022-11-20T07:19:19;99367.78;;;-1.97;100.00
71195;BME280;58908;51.426;7.714;2022-11-20T07:21:45;99376.38;;;-1.96;100.00
71195;BME280;58908;51.426;7.714;2022-11-20T07:24:11;99380.81;;;-2.04;100.00
71195;BME280;58908;51.426;7.714;2022-11-20T07:26:37;99383.34;;;-2.01;100.00
71195;BME280;58908;51.426;7.714;2022-11-20T07:29:04;99385.09;;;-2.03;100.00
71195;BME280;58908;51.426;7.714;2022-11-20T07:31:30;99387.59;;;-1.97;100.00
71195;BME280;58908;51.426;7.714;2022-11-20T07:33:58;99392.63;;;-1.88;100.00
71195;BME280;58908;51.426;7.714;2022-11-20T07:36:24;99384.88;;;-1.88;100.00
71195;BME280;58908;51.426;7.714;2022-11-20T07:38:50;99393.53;;;-1.89;100.00
71195;BME280;58908;51.426;7.714;2022-11-20T07:41:16;99395.22;;;-1.87;100.00
71195;BME280;58908;51.426;7.714;2022-11-20T07:43:43;99395.22;;;-1.90;100.00
71195;BME280;58908;51.426;7.714;2022-11-20T07:46:09;99398.69;;;-1.89;100.00
71195;BME280;58908;51.426;7.714;2022-11-20T07:48:35;99392.63;;;-1.88;100.00
71195;BME280;58908;51.426;7.714;2022-11-20T07:51:03;99400.41;;;-1.88;100.00
71195;BME280;58908;51.426;7.714;2022-11-20T07:53:29;99398.56;;;-1.82;100.00
71195;BME280;58908;51.426;7.714;2022-11-20T07:55:58;99390.81;;;-1.80;100.00
71195;BME280;58908;51.426;7.714;2022-11-20T07:58:25;99396.66;;;-1.68;100.00
71195;BME280;58908;51.426;7.714;2022-11-20T08:00:51;99394.75;;;-1.57;100.00
71195;BME280;58908;51.426;7.714;2022-11-20T08:03:17;99392.09;;;-1.52;100.00
71195;BME280;58908;51.426;7.714;2022-11-20T08:05:43;99393.69;;;-1.42;100.00
71195;BME280;58908;51.426;7.714;2022-11-20T08:08:11;99400.34;;;-1.29;100.00
71195;BME280;58908;51.426;7.714;2022-11-20T08:10:37;99392.88;;;-1.46;100.00
71195;BME280;58908;51.426;7.714;2022-11-20T08:13:03;99382.56;;;-1.47;100.00
71195;BME280;58908;51.426;7.714;2022-11-20T08:15:48;99393.00;;;-1.53;100.00
71195;BME280;58908;51.426;7.714;2022-11-20T08:18:15;99387.75;;;-1.50;100.00
71195;BME280;58908;51.426;7.714;2022-11-20T08:20:42;99387.75;;;-1.50;100.00
71195;BME280;58908;51.426;7.714;2022-11-20T08:23:08;99387.75;;;-1.50;100.00
71195;BME280;58908;51.426;7.714;2022-11-20T08:25:36;99398.09;;;-1.47;100.00
71195;BME280;58908;51.426;7.714;2022-11-20T08:28:04;99390.19;;;-1.40;100.00
71195;BME280;58908;51.426;7.714;2022-11-20T08:30:30;99387.06;;;-1.05;100.00
71195;BME280;58908;51.426;7.714;2022-11-20T08:33:00;99381.81;;;-0.13;100.00
71195;BME280;58908;51.426;7.714;2022-11-20T08:35:26;99380.50;;;1.15;100.00
71195;BME280;58908;51.426;7.714;2022-11-20T08:37:52;99375.56;;;0.35;100.00
71195;BME280;58908;51.426;7.714;2022-11-20T08:40:19;99373.69;;;-0.37;100.00
71195;BME280;58908;51.426;7.714;2022-11-20T08:42:47;99379.94;;;0.69;100.00
71195;BME280;58908;51.426;7.714;2022-11-20T08:45:13;99372.78;;;2.05;100.00
71195;BME280;58908;51.426;7.714;2022-11-20T08:47:40;99372.63;;;3.18;100.00
71195;BME280;58908;51.426;7.714;2022-11-20T08:50:07;99362.94;;;3.93;100.00
71195;BME280;58908;51.426;7.714;2022-11-20T08:52:33;99364.03;;;4.32;100.00
71195;BME280;58908;51.426;7.714;2022-11-20T08:54:59;99358.91;;;4.52;97.41
71195;BME280;58908;51.426;7.714;2022-11-20T08:57:26;99356.16;;;4.55;89.86
71195;BME280;58908;51.426;7.714;2022-11-20T08:59:53;99349.97;;;5.00;86.29
71195;BME280;58908;51.426;7.714;2022-11-20T09:02:19;99344.03;;;5.37;80.63
71195;BME280;58908;51.426;7.714;2022-11-20T09:04:46;99348.22;;;5.61;77.65
71195;BME280;58908;51.426;7.714;2022-11-20T09:07:12;99343.97;;;5.97;74.83
71195;BME280;58908;51.426;7.714;2022-11-20T09:09:38;99338.97;;;6.11;73.23
71195;BME280;58908;51.426;7.714;2022-11-20T09:12:04;99339.97;;;6.97;70.79
71195;BME280;58908;51.426;7.714;2022-11-20T09:14:31;99338.16;;;7.16;67.04
71195;BME280;58908;51.426;7.714;2022-11-20T09:17:00;99337.50;;;7.79;64.93
71195;BME280;58908;51.426;7.714;2022-11-20T09:19:26;99333.72;;;8.33;62.39
71195;BME280;58908;51.426;7.714;2022-11-20T09:21:52;99338.38;;;6.60;65.34
71195;BME280;58908;51.426;7.714;2022-11-20T09:24:18;99346.84;;;6.65;67.62
71195;BME280;58908;51.426;7.714;2022-11-20T09:26:45;99351.06;;;4.31;72.36
71195;BME280;58908;51.426;7.714;2022-11-20T09:29:11;99348.66;;;3.57;76.30
71195;BME280;58908;51.426;7.714;2022-11-20T09:31:38;99351.94;;;3.13;80.35
71195;BME280;58908;51.426;7.714;2022-11-20T09:34:05;99347.09;;;2.77;83.11
71195;BME280;58908;51.426;7.714;2022-11-20T09:36:32;99347.16;;;2.48;86.36
71195;BME280;58908;51.426;7.714;2022-11-20T09:38:58;99348.41;;;2.09;88.56
71195;BME280;58908;51.426;7.714;2022-11-20T09:41:42;99349.44;;;2.04;90.56
71195;BME280;58908;51.426;7.714;2022-11-20T09:44:17;99345.06;;;2.04;89.94
71195;BME280;58908;51.426;7.714;2022-11-20T09:46:47;99342.47;;;2.04;90.62
71195;BME280;58908;51.426;7.714;2022-11-20T09:49:22;99332.13;;;1.72;92.90
71195;BME280;58908;51.426;7.714;2022-11-20T09:51:52;99334.22;;;1.61;94.04
71195;BME280;58908;51.426;7.714;2022-11-20T09:54:20;99335.97;;;1.61;92.27
71195;BME280;58908;51.426;7.714;2022-11-20T09:56:48;99340.63;;;1.48;92.31
71195;BME280;58908;51.426;7.714;2022-11-20T09:59:20;99338.00;;;1.50;91.87
71195;BME280;58908;51.426;7.714;2022-11-20T10:01:52;99341.38;;;1.53;92.36
71195;BME280;58908;51.426;7.714;2022-11-20T10:04:20;99320.38;;;1.61;91.71
71195;BME280;58908;51.426;7.714;2022-11-20T10:06:47;99326.47;;;1.60;91.77
71195;BME280;58908;51.426;7.714;2022-11-20T10:09:19;99324.75;;;1.59;91.82
71195;BME280;58908;51.426;7.714;2022-11-20T10:11:48;99329.97;;;1.57;91.68
71195;BME280;58908;51.426;7.714;2022-11-20T10:14:20;99323.75;;;1.63;92.39
71195;BME280;58908;51.426;7.714;2022-11-20T10:16:51;99322.84;;;1.65;92.85
71195;BME280;58908;51.426;7.714;2022-11-20T10:19:24;99308.03;;;1.67;93.88
71195;BME280;58908;51.426;7.714;2022-11-20T10:21:56;99309.97;;;1.61;93.41
71195;BME280;58908;51.426;7.714;2022-11-20T10:24:33;99309.09;;;1.60;92.90
71195;BME280;58908;51.426;7.714;2022-11-20T10:27:03;99302.06;;;1.64;93.33
71195;BME280;58908;51.426;7.714;2022-11-20T10:29:36;99303.91;;;1.60;93.06
71195;BME280;58908;51.426;7.714;2022-11-20T10:32:03;99301.31;;;1.60;93.72
71195;BME280;58908;51.426;7.714;2022-11-20T10:34:32;99300.50;;;1.58;94.30
71195;BME280;58908;51.426;7.714;2022-11-20T10:37:02;99296.41;;;1.51;95.02
71195;BME280;58908;51.426;7.714;2022-11-20T10:39:32;99297.19;;;1.53;95.68
71195;BME280;58908;51.426;7.714;2022-11-20T10:42:01;99296.03;;;1.63;95.42
71195;BME280;58908;51.426;7.714;2022-11-20T10:44:27;99298.88;;;1.83;95.04
71195;BME280;58908;51.426;7.714;2022-11-20T10:47:12;99296.16;;;1.88;94.02
71195;BME280;58908;51.426;7.714;2022-11-20T10:49:40;99293.38;;;1.94;93.76
71195;BME280;58908;51.426;7.714;2022-11-20T10:52:09;99297.31;;;2.07;93.93
71195;BME280;58908;51.426;7.714;2022-11-20T10:54:40;99293.41;;;2.20;93.99
71195;BME280;58908;51.426;7.714;2022-11-20T10:57:12;99298.44;;;2.26;94.65
71195;BME280;58908;51.426;7.714;2022-11-20T10:59:45;99298.72;;;2.44;94.76
71195;BME280;58908;51.426;7.714;2022-11-20T11:02:16;99290.66;;;2.51;93.88
71195;BME280;58908;51.426;7.714;2022-11-20T11:04:44;99285.53;;;2.74;93.72
71195;BME280;58908;51.426;7.714;2022-11-20T11:07:12;99287.97;;;2.80;91.84
71195;BME280;58908;51.426;7.714;2022-11-20T11:09:41;99278.56;;;3.01;91.01
71195;BME280;58908;51.426;7.714;2022-11-20T11:12:09;99284.50;;;3.04;89.91
71195;BME280;58908;51.426;7.714;2022-11-20T11:14:42;99280.97;;;3.07;89.48
71195;BME280;58908;51.426;7.714;2022-11-20T11:17:17;99278.13;;;3.13;89.61
71195;BME280;58908;51.426;7.714;2022-11-20T11:19:45;99277.16;;;2.91;88.92
71195;BME280;58908;51.426;7.714;2022-11-20T11:22:15;99275.47;;;2.90;89.06
71195;BME280;58908;51.426;7.714;2022-11-20T11:24:43;99276.97;;;2.97;90.28
71195;BME280;58908;51.426;7.714;2022-11-20T11:27:17;99269.06;;;2.98;90.27
71195;BME280;58908;51.426;7.714;2022-11-20T11:29:43;99257.03;;;2.96;91.42
71195;BME280;58908;51.426;7.714;2022-11-20T11:32:11;99256.44;;;3.12;91.36
71195;BME280;58908;51.426;7.714;2022-11-20T11:34:38;99252.31;;;3.30;90.52
71195;BME280;58908;51.426;7.714;2022-11-20T11:37:10;99250.00;;;3.22;89.16
71195;BME280;58908;51.426;7.714;2022-11-20T11:39:37;99251.56;;;3.03;88.92
71195;BME280;58908;51.426;7.714;2022-11-20T11:42:07;99244.91;;;2.95;89.15
71195;BME280;58908;51.426;7.714;2022-11-20T11:44:43;99248.28;;;2.72;89.48
71195;BME280;58908;51.426;7.714;2022-11-20T11:47:31;99234.09;;;2.81;89.86
71195;BME280;58908;51.426;7.714;2022-11-20T11:50:02;99233.13;;;2.85;90.89
71195;BME280;58908;51.426;7.714;2022-11-20T11:52:30;99228.81;;;2.84;90.60
71195;BME280;58908;51.426;7.714;2022-11-20T11:54:57;99227.84;;;2.86;90.36
71195;BME280;58908;51.426;7.714;2022-11-20T11:57:26;99230.41;;;2.88;90.41
71195;BME280;58908;51.426;7.714;2022-11-20T11:59:57;99238.16;;;2.89;91.41
71195;BME280;58908;51.426;7.714;2022-11-20T12:02:29;99230.44;;;2.86;89.74
71195;BME280;58908;51.426;7.714;2022-11-20T12:04:58;99229.22;;;2.96;89.36
71195;BME280;58908;51.426;7.714;2022-11-20T12:07:29;99223.56;;;3.08;91.15
71195;BME280;58908;51.426;7.714;2022-11-20T12:10:01;99212.66;;;3.22;89.92
71195;BME280;58908;51.426;7.714;2022-11-20T12:12:29;99208.06;;;3.28;90.48
71195;BME280;58908;51.426;7.714;2022-11-20T12:15:00;99210.78;;;3.25;89.29
71195;BME280;58908;51.426;7.714;2022-11-20T12:17:27;99205.63;;;3.24;88.32
71195;BME280;58908;51.426;7.714;2022-11-20T12:19:53;99206.78;;;3.17;88.13
71195;BME280;58908;51.426;7.714;2022-11-20T12:22:22;99201.78;;;3.34;88.57
71195;BME280;58908;51.426;7.714;2022-11-20T12:24:52;99193.47;;;3.24;87.61
71195;BME280;58908;51.426;7.714;2022-11-20T12:27:28;99195.31;;;3.21;87.75
71195;BME280;58908;51.426;7.714;2022-11-20T12:30:05;99183.59;;;3.32;88.63
71195;BME280;58908;51.426;7.714;2022-11-20T12:32:37;99181.88;;;3.31;87.60
71195;BME280;58908;51.426;7.714;2022-11-20T12:35:10;99176.75;;;3.30;87.00
71195;BME280;58908;51.426;7.714;2022-11-20T12:37:43;99171.84;;;3.44;86.78
71195;BME280;58908;51.426;7.714;2022-11-20T12:40:17;99174.72;;;3.59;85.61
71195;BME280;58908;51.426;7.714;2022-11-20T12:42:57;99168.31;;;3.00;86.24
71195;BME280;58908;51.426;7.714;2022-11-20T12:45:54;99167.59;;;2.95;87.57
71195;BME280;58908;51.426;7.714;2022-11-20T12:48:36;99165.44;;;2.83;87.18
71195;BME280;58908;51.426;7.714;2022-11-20T12:51:08;99162.56;;;2.91;88.51
71195;BME280;58908;51.426;7.714;2022-11-20T12:53:39;99163.16;;;2.99;87.66
71195;BME280;58908;51.426;7.714;2022-11-20T12:56:11;99153.00;;;3.14;87.19
71195;BME280;58908;51.426;7.714;2022-11-20T12:58:46;99151.31;;;3.13;87.92
71195;BME280;58908;51.426;7.714;2022-11-20T13:01:20;99155.09;;;3.05;87.74